Time;durP1;ratioP1;P1;durP2;ratioP2;P2;SDS_P1;SDS_P2;PMS_P1;PMS_P2;Temp;Humidity;BMP_temperature;BMP_pressure;BME280_temperature;BME280_humidity;BME280_pressure;Samples;Min_cycle;Max_cycle;Signal;HPM_P1;HPM_P2
2022/02/07 00:05:59;;;;;;;;;1.00;0.00;;;;;10.44;75.17;100980.31;5055900;28;46225;-75
2022/02/07 00:08:24;;;;;;;;;0.00;0.00;;;;;10.39;74.71;100991.09;5055893;28;46192;-75
2022/02/07 00:10:50;;;;;;;;;2.00;0.00;;;;;10.40;74.71;100989.31;5055869;28;45732;-76
2022/02/07 00:13:15;;;;;;;;;3.00;1.00;;;;;10.38;73.98;101004.28;5055567;28;45596;-73
2022/02/07 00:15:40;;;;;;;;;0.00;0.00;;;;;10.36;74.47;101014.88;5055695;28;47321;-75
2022/02/07 00:18:07;;;;;;;;;0.00;0.00;;;;;10.37;72.56;101023.53;5055811;28;45620;-75
2022/02/07 00:20:35;;;;;;;;;0.00;0.00;;;;;10.35;75.41;101015.81;5055528;28;45723;-76
2022/02/07 00:23:01;;;;;;;;;0.75;0.00;;;;;10.32;74.40;101029.09;5055841;28;45641;-74
2022/02/07 00:25:26;;;;;;;;;0.00;0.00;;;;;10.30;74.36;101033.59;5055447;28;45750;-76
2022/02/07 00:27:52;;;;;;;;;2.00;0.50;;;;;10.32;73.91;101036.94;5055874;28;45563;-76
2022/02/07 00:33:39;;;;;;;;;0.00;0.00;;;;;10.28;73.25;101045.09;5055713;28;45679;-75
2022/02/07 00:36:04;;;;;;;;;1.00;0.25;;;;;10.26;73.36;101044.31;5055470;28;47348;-75
2022/02/07 00:38:31;;;;;;;;;0.00;0.00;;;;;10.28;73.71;101045.09;5055640;28;45625;-73
2022/02/07 00:45:54;;;;;;;;;1.00;0.00;;;;;10.22;75.10;101069.03;5055141;28;45519;-76
2022/02/07 00:48:24;;;;;;;;;1.00;0.00;;;;;10.19;75.40;101077.09;5055502;28;46061;-76
2022/02/07 00:50:51;;;;;;;;;0.00;0.00;;;;;10.09;75.66;101075.00;5055223;28;45619;-75
2022/02/07 00:53:17;;;;;;;;;0.00;0.00;;;;;10.11;79.23;101125.50;5055387;28;45821;-76
2022/02/07 00:55:42;;;;;;;;;0.75;0.00;;;;;10.07;75.83;101126.63;5055241;28;46267;-75
2022/02/07 00:58:08;;;;;;;;;0.00;0.00;;;;;10.02;74.66;101123.44;5054338;28;45693;-74
2022/02/07 01:04:35;;;;;;;;;0.50;0.00;;;;;9.94;74.39;101141.38;5054330;28;45684;-75
2022/02/07 01:07:04;;;;;;;;;0.25;0.00;;;;;9.94;73.05;101164.91;5054804;28;46804;-75
2022/02/07 01:09:38;;;;;;;;;0.25;0.00;;;;;9.91;73.74;101167.72;5054969;28;46321;-75
2022/02/07 01:12:12;;;;;;;;;0.75;0.50;;;;;9.86;71.71;101155.84;5054728;28;45760;-76
2022/02/07 01:14:48;;;;;;;;;2.00;1.00;;;;;9.83;71.67;101171.72;5055475;28;45482;-75
2022/02/07 01:53:16;;;;;;;;;1.00;0.00;;;;;9.39;70.25;101285.00;5054448;28;45874;-74
2022/02/07 01:55:44;;;;;;;;;0.00;0.00;;;;;9.34;71.81;101309.72;5054453;28;45640;-74
2022/02/07 01:58:11;;;;;;;;;0.00;0.00;;;;;9.32;68.33;101308.94;5054319;28;45977;-76
2022/02/07 02:03:58;;;;;;;;;0.00;0.00;;;;;9.26;70.09;101304.88;5053742;28;45691;-74
2022/02/07 02:06:23;;;;;;;;;0.50;0.00;;;;;9.17;69.46;101306.25;5054026;28;45739;-76
2022/02/07 02:08:49;;;;;;;;;1.00;0.00;;;;;9.21;69.71;101331.28;5053969;28;45829;-76
2022/02/07 02:11:15;;;;;;;;;0.00;0.00;;;;;9.13;68.52;101330.84;5054021;28;46576;-76
2022/02/07 02:20:21;;;;;;;;;0.00;0.00;;;;;9.06;69.94;101378.31;5053888;28;45518;-75
2022/02/07 02:46:39;;;;;;;;;0.00;0.00;;;;;8.66;68.56;101390.81;5053954;28;46080;-78
2022/02/07 02:49:05;;;;;;;;;0.75;0.00;;;;;8.75;67.95;101421.69;5053756;28;45752;-76
2022/02/07 02:51:31;;;;;;;;;0.00;0.00;;;;;8.77;68.99;101438.13;5054405;28;45603;-76
2022/02/07 02:53:57;;;;;;;;;0.75;0.00;;;;;8.74;70.93;101476.63;5054536;28;47357;-77
2022/02/07 02:56:23;;;;;;;;;0.00;0.00;;;;;8.74;68.98;101445.28;5054886;28;46110;-75
2022/02/07 02:58:48;;;;;;;;;1.00;0.00;;;;;8.70;68.23;101452.41;5054445;28;45714;-73
2022/02/07 03:04:37;;;;;;;;;2.00;0.00;;;;;8.58;70.03;101429.53;5052854;28;45667;-76
2022/02/07 03:07:02;;;;;;;;;1.25;0.00;;;;;8.62;68.90;101438.91;5054510;28;45984;-73
2022/02/07 03:09:29;;;;;;;;;3.00;0.00;;;;;8.60;67.00;101432.91;5054141;28;45621;-77
2022/02/07 03:11:55;;;;;;;;;0.00;0.00;;;;;8.60;67.12;101438.13;5056198;28;46029;-77
2022/02/07 03:14:33;;;;;;;;;1.75;0.00;;;;;8.59;68.84;101454.69;5068925;28;45577;-77
2022/02/07 03:20:22;;;;;;;;;0.25;0.00;;;;;8.52;67.93;101434.22;5060678;28;45784;-73
2022/02/07 03:22:47;;;;;;;;;0.00;0.00;;;;;8.57;68.44;101450.50;5076584;28;45600;-76
2022/02/07 03:25:12;;;;;;;;;0.00;0.00;;;;;8.56;68.98;101470.53;5076739;28;45406;-74
2022/02/07 03:27:38;;;;;;;;;0.50;0.50;;;;;8.54;69.74;101467.16;5078386;28;45627;-76
2022/02/07 03:30:04;;;;;;;;;1.50;0.00;;;;;8.51;67.74;101477.75;5077694;28;45230;-74
2022/02/07 03:32:29;;;;;;;;;1.50;0.00;;;;;8.51;68.58;101477.75;5076024;28;45671;-74
2022/02/07 03:34:54;;;;;;;;;2.00;0.25;;;;;8.50;69.85;101493.50;5076268;28;45404;-73
2022/02/07 03:37:20;;;;;;;;;1.25;0.00;;;;;8.49;68.49;101482.19;5046011;28;46490;-75
2022/02/07 03:39:45;;;;;;;;;2.00;0.00;;;;;8.48;69.48;101487.47;5058037;28;45712;-75
2022/02/07 03:42:10;;;;;;;;;0.00;0.00;;;;;8.41;67.67;101498.25;5059552;28;45669;-74
2022/02/07 03:44:36;;;;;;;;;1.00;0.00;;;;;8.43;69.73;101513.81;5063405;28;46338;-74
2022/02/07 03:50:23;;;;;;;;;1.00;0.00;;;;;8.36;69.56;101534.16;5057172;28;45547;-76
2022/02/07 03:52:50;;;;;;;;;1.75;0.00;;;;;8.37;67.65;101527.16;5056879;28;45815;-75
2022/02/07 03:55:16;;;;;;;;;1.00;0.00;;;;;8.33;69.48;101530.84;5057053;28;47232;-76
2022/02/07 03:57:43;;;;;;;;;0.50;0.25;;;;;8.25;69.69;101525.13;5058468;28;47005;-74
2022/02/07 04:00:10;;;;;;;;;1.00;0.00;;;;;8.28;69.25;101538.00;5057922;28;45543;-74
2022/02/07 04:06:06;;;;;;;;;1.00;0.00;;;;;8.21;68.48;101541.81;5054031;28;46075;-72
2022/02/07 04:08:44;;;;;;;;;0.00;0.00;;;;;8.18;68.96;101547.19;5056491;28;45672;-77
2022/02/07 04:11:24;;;;;;;;;1.00;0.00;;;;;8.19;67.96;101551.50;5058729;28;45711;-75
2022/02/07 04:13:53;;;;;;;;;1.75;0.00;;;;;8.12;69.04;101552.69;5071955;28;45803;-75
2022/02/07 04:16:19;;;;;;;;;1.00;0.00;;;;;8.12;69.12;101581.41;5055460;28;46603;-74
2022/02/07 04:19:03;;;;;;;;;1.00;0.00;;;;;8.11;68.66;101574.47;5055688;28;45559;-75
2022/02/07 04:21:31;;;;;;;;;0.00;0.00;;;;;8.10;68.67;101585.84;5054682;28;45909;-75
2022/02/07 04:23:59;;;;;;;;;0.00;0.00;;;;;8.08;68.53;101591.13;5056164;28;45564;-75
2022/02/07 04:26:25;;;;;;;;;0.00;0.00;;;;;8.05;67.85;101593.88;5055815;28;46427;-73
2022/02/07 04:28:51;;;;;;;;;0.00;0.00;;;;;8.02;68.08;101588.78;5055792;28;46115;-74
2022/02/07 04:31:16;;;;;;;;;2.75;0.75;;;;;7.98;67.87;101593.31;5055205;28;45593;-75
2022/02/07 04:33:42;;;;;;;;;0.25;0.00;;;;;7.97;68.90;101616.84;5054257;28;45766;-74
2022/02/07 04:36:07;;;;;;;;;1.50;0.00;;;;;7.97;67.96;101606.41;5054353;28;47219;-75
2022/02/07 04:38:33;;;;;;;;;2.00;0.00;;;;;7.97;68.55;101603.81;5055333;28;47040;-75
2022/02/07 04:40:58;;;;;;;;;2.75;1.00;;;;;7.94;68.36;101607.38;5055408;28;45520;-75
2022/02/07 04:43:24;;;;;;;;;0.00;0.00;;;;;7.93;68.15;101618.75;5053949;28;45510;-75
2022/02/07 04:49:15;;;;;;;;;0.00;0.00;;;;;7.89;68.27;101625.00;5055462;28;46277;-76
2022/02/07 04:59:02;;;;;;;;;1.00;0.00;;;;;7.81;68.14;101629.72;5055197;28;45652;-76
2022/02/07 05:04:00;;;;;;;;;0.00;0.00;;;;;7.82;68.13;101641.88;5056001;28;45527;-74
2022/02/07 05:14:41;;;;;;;;;0.50;0.00;;;;;7.70;68.37;101650.19;5055056;28;45649;-76
2022/02/07 05:17:09;;;;;;;;;1.25;0.00;;;;;7.72;67.47;101663.19;5054879;28;45550;-75
2022/02/07 05:19:34;;;;;;;;;0.00;0.00;;;;;7.70;67.50;101668.47;5036914;28;47069;-75
2022/02/07 05:22:00;;;;;;;;;0.00;0.00;;;;;7.67;67.63;101665.97;5054290;28;45721;-76
2022/02/07 05:24:25;;;;;;;;;0.00;0.00;;;;;7.73;67.37;101688.31;5036627;28;45540;-73
2022/02/07 05:26:51;;;;;;;;;0.50;0.50;;;;;7.73;67.57;101704.84;5054597;28;46571;-73
2022/02/07 05:29:16;;;;;;;;;1.25;1.00;;;;;7.72;67.49;101700.53;5036280;28;46282;-73
2022/02/07 05:35:04;;;;;;;;;1.75;0.50;;;;;7.71;67.93;101698.84;5054612;28;45535;-75
2022/02/07 05:37:31;;;;;;;;;0.50;0.00;;;;;7.70;68.26;101698.91;5054335;28;46510;-74
2022/02/07 05:40:05;;;;;;;;;0.50;0.00;;;;;7.68;67.63;101692.91;5054679;28;45908;-75
2022/02/07 05:42:30;;;;;;;;;0.00;0.00;;;;;7.65;67.82;101703.47;5054556;28;45715;-74
2022/02/07 05:44:55;;;;;;;;;1.00;0.75;;;;;7.66;67.90;101719.06;5069640;28;45909;-73
2022/02/07 05:50:43;;;;;;;;;1.00;0.00;;;;;7.66;68.21;101739.06;5054107;28;46067;-73
2022/02/07 05:53:08;;;;;;;;;1.00;1.00;;;;;7.59;68.08;101728.88;5054146;28;45626;-74
2022/02/07 05:55:33;;;;;;;;;1.00;0.25;;;;;7.61;69.35;101756.66;5054390;28;45526;-75
2022/02/07 05:57:59;;;;;;;;;3.25;2.00;;;;;7.57;68.19;101755.91;5054454;28;46568;-74
2022/02/07 06:00:26;;;;;;;;;0.25;0.25;;;;;7.63;68.33;101757.44;5054695;28;45608;-74
2022/02/07 06:06:12;;;;;;;;;0.75;0.00;;;;;7.61;69.26;101769.72;5053989;28;46138;-74
2022/02/07 06:08:38;;;;;;;;;1.00;0.00;;;;;7.58;68.04;101763.69;5054209;28;46357;-73
2022/02/07 06:11:06;;;;;;;;;1.00;1.00;;;;;7.54;68.55;101766.50;5054163;28;45588;-72
2022/02/07 06:13:32;;;;;;;;;2.50;1.00;;;;;7.54;68.51;101769.09;5054180;28;45903;-73
2022/02/07 06:15:57;;;;;;;;;2.00;0.00;;;;;7.55;68.29;101781.22;5054030;28;45822;-73
2022/02/07 06:21:46;;;;;;;;;2.00;1.00;;;;;7.55;68.65;101789.06;5053933;28;45738;-74
2022/02/07 06:24:11;;;;;;;;;1.00;1.00;;;;;7.55;67.89;101786.44;5052998;28;45621;-74
2022/02/07 06:26:37;;;;;;;;;1.00;0.25;;;;;7.54;67.94;101788.19;5054374;28;45837;-75
2022/02/07 06:29:03;;;;;;;;;1.00;0.00;;;;;7.55;68.12;101795.13;5053180;28;46697;-73
2022/02/07 06:31:28;;;;;;;;;2.00;0.00;;;;;7.56;68.16;101796.78;5054217;28;45670;-78
2022/02/07 06:37:15;;;;;;;;;1.25;0.00;;;;;7.50;68.00;101791.81;5054494;28;45609;-74
2022/02/07 06:39:41;;;;;;;;;0.00;0.00;;;;;7.53;67.96;101811.72;5053930;28;45666;-73
2022/02/07 06:42:06;;;;;;;;;1.25;0.00;;;;;7.52;68.38;101803.03;5036011;28;46971;-75
2022/02/07 06:44:32;;;;;;;;;4.50;1.00;;;;;7.50;68.29;101812.66;5054391;28;45556;-74
2022/02/07 06:46:57;;;;;;;;;1.00;1.00;;;;;7.53;68.07;101814.31;5054546;28;45689;-76
2022/02/07 06:49:23;;;;;;;;;0.00;0.00;;;;;7.53;68.31;101829.97;5054517;28;46923;-73
2022/02/07 06:51:48;;;;;;;;;1.75;1.75;;;;;7.52;68.04;101823.91;5053800;28;45757;-75
2022/02/07 06:54:14;;;;;;;;;2.00;1.00;;;;;7.53;68.28;101832.56;5054081;28;45639;-74
2022/02/07 06:56:41;;;;;;;;;1.50;0.75;;;;;7.53;68.43;101841.25;5054754;28;45607;-74
2022/02/07 06:59:06;;;;;;;;;0.75;0.00;;;;;7.51;68.02;101843.06;5057473;28;46430;-77
2022/02/07 07:01:32;;;;;;;;;1.25;1.00;;;;;7.54;68.24;101842.97;5056783;28;46131;-75
2022/02/07 07:07:20;;;;;;;;;3.75;1.50;;;;;7.54;68.57;101858.59;5055666;28;45800;-77
2022/02/07 07:09:46;;;;;;;;;1.75;0.00;;;;;7.47;68.57;101844.09;5057421;28;46679;-74
2022/02/07 07:12:12;;;;;;;;;0.75;0.75;;;;;7.52;68.37;101854.34;5057781;28;46585;-75
2022/02/07 07:14:45;;;;;;;;;5.50;1.25;;;;;7.48;68.17;101847.56;5057137;28;45577;-75
2022/02/07 07:17:11;;;;;;;;;3.25;1.00;;;;;7.50;68.90;101858.78;5057530;28;45713;-77
2022/02/07 07:19:37;;;;;;;;;2.00;2.00;;;;;7.51;68.48;101857.84;5057741;28;46351;-76
2022/02/07 07:22:04;;;;;;;;;2.00;1.00;;;;;7.48;68.16;101857.97;5039435;28;46376;-75
2022/02/07 07:24:29;;;;;;;;;1.00;1.00;;;;;7.43;69.17;101860.78;5057235;28;45475;-75
2022/02/07 07:26:57;;;;;;;;;2.00;1.00;;;;;7.44;68.59;101870.28;5057499;28;45511;-76
2022/02/07 07:29:29;;;;;;;;;2.00;1.00;;;;;7.52;68.49;101896.91;5057547;28;46588;-76
2022/02/07 07:31:59;;;;;;;;;2.25;1.00;;;;;7.49;68.33;101901.41;5056814;28;47119;-76
2022/02/07 07:37:46;;;;;;;;;1.25;0.75;;;;;7.50;68.32;101898.72;5057381;28;45483;-73
2022/02/07 07:40:12;;;;;;;;;2.75;1.00;;;;;7.56;68.56;101910.69;5057056;28;45501;-74
2022/02/07 07:42:37;;;;;;;;;2.00;1.00;;;;;7.56;68.64;101919.34;5055572;28;46273;-75
2022/02/07 07:45:03;;;;;;;;;3.50;2.00;;;;;7.50;67.97;101901.31;5056547;28;45464;-76
2022/02/07 07:47:30;;;;;;;;;1.00;1.00;;;;;7.58;68.66;101933.19;5057147;28;45617;-75
2022/02/07 07:50:10;;;;;;;;;1.50;1.00;;;;;7.60;68.83;101938.38;5056895;28;46393;-75
2022/02/07 07:53:02;;;;;;;;;2.00;1.00;;;;;7.59;69.13;101949.69;5057470;28;47241;-77
2022/02/07 08:01:17;;;;;;;;;4.00;1.00;;;;;7.54;68.92;101946.41;5058730;28;45577;-76
2022/02/07 08:03:45;;;;;;;;;1.25;1.00;;;;;7.55;68.45;101962.00;5056918;28;45684;-78
2022/02/07 08:06:22;;;;;;;;;1.50;1.00;;;;;7.62;68.38;101988.69;5056425;28;45630;-73
2022/02/07 08:09:01;;;;;;;;;1.00;1.00;;;;;7.67;68.42;101988.50;5056424;28;45597;-77
2022/02/07 08:11:26;;;;;;;;;2.00;2.00;;;;;7.68;68.96;101988.47;5056695;28;45757;-77
2022/02/07 08:13:54;;;;;;;;;3.00;1.00;;;;;7.69;68.77;101990.16;5054176;28;45749;-74
2022/02/07 08:16:19;;;;;;;;;3.50;3.00;;;;;7.75;68.84;101997.78;5071933;28;45775;-75
2022/02/07 08:18:44;;;;;;;;;6.25;3.50;;;;;7.76;68.75;102006.47;5056534;28;45551;-74
2022/02/07 08:21:11;;;;;;;;;2.00;1.00;;;;;7.79;68.41;102016.75;5056029;28;46386;-75
2022/02/07 08:23:39;;;;;;;;;3.00;2.00;;;;;7.78;68.81;102007.22;5056515;28;45578;-76
2022/02/07 08:26:05;;;;;;;;;9.00;1.50;;;;;7.82;68.45;102006.22;5055042;28;45794;-76
2022/02/07 08:28:31;;;;;;;;;3.50;2.00;;;;;7.81;68.58;102017.56;5056771;28;45593;-78
2022/02/07 08:30:57;;;;;;;;;5.00;3.00;;;;;7.83;68.63;102027.03;5056221;28;47332;-76
2022/02/07 08:33:23;;;;;;;;;3.50;2.00;;;;;7.87;68.49;102046.91;5056093;28;45550;-79
2022/02/07 08:35:50;;;;;;;;;3.00;3.00;;;;;7.92;68.60;102047.56;5055860;28;45610;-77
2022/02/07 08:38:19;;;;;;;;;2.25;2.25;;;;;7.88;68.61;102035.53;5056357;28;45510;-78
2022/02/07 08:40:46;;;;;;;;;1.00;1.00;;;;;7.97;68.63;102052.63;5056066;28;46787;-74
2022/02/07 08:43:11;;;;;;;;;3.00;2.00;;;;;7.98;68.53;102049.13;5056293;28;46068;-75
2022/02/07 08:45:37;;;;;;;;;4.50;2.75;;;;;7.98;68.73;102055.19;5055862;28;45599;-78
2022/02/07 08:48:04;;;;;;;;;2.00;2.00;;;;;7.92;68.75;102051.94;5056315;28;45577;-76
2022/02/07 08:50:30;;;;;;;;;2.50;1.75;;;;;7.99;68.67;102056.84;5056176;28;45598;-77
2022/02/07 08:52:58;;;;;;;;;2.75;2.00;;;;;8.00;68.64;102053.34;5056220;28;46858;-75
2022/02/07 08:55:50;;;;;;;;;1.75;1.00;;;;;8.03;68.51;102057.63;5056016;28;45941;-76
2022/02/07 08:58:16;;;;;;;;;2.25;1.25;;;;;8.00;68.72;102062.94;5054380;28;45992;-77
2022/02/07 09:04:10;;;;;;;;;5.00;2.50;;;;;8.07;68.54;102084.44;4993676;28;46184;-76
2022/02/07 09:09:15;;;;;;;;;5.00;2.25;;;;;8.12;68.76;102095.56;5012923;28;45757;-77
2022/02/07 09:11:41;;;;;;;;;2.00;1.25;;;;;8.13;68.75;102113.78;5013658;28;47248;-77
2022/02/07 09:14:11;;;;;;;;;5.00;2.00;;;;;8.14;68.94;102122.47;5013904;28;45538;-77
2022/02/07 09:16:40;;;;;;;;;5.00;2.75;;;;;8.16;68.67;102118.03;5014076;28;45745;-76
2022/02/07 09:19:07;;;;;;;;;5.25;2.00;;;;;8.15;68.81;102130.22;5012739;28;45600;-77
2022/02/07 09:21:34;;;;;;;;;2.00;1.00;;;;;8.15;68.79;102132.84;5013331;28;45605;-74
2022/02/07 09:24:00;;;;;;;;;2.00;1.25;;;;;8.19;68.74;102141.44;5013568;28;46567;-77
2022/02/07 09:26:26;;;;;;;;;4.50;2.00;;;;;8.14;68.71;102139.00;5013986;28;45692;-77
2022/02/07 09:28:52;;;;;;;;;4.00;2.00;;;;;8.20;68.67;102154.44;5014450;28;45582;-76
2022/02/07 09:31:21;;;;;;;;;2.50;1.25;;;;;8.23;68.83;102154.31;5014172;28;47307;-77
2022/02/07 09:33:47;;;;;;;;;2.00;2.00;;;;;8.21;68.99;102155.25;5014931;28;46260;-76
2022/02/07 09:36:14;;;;;;;;;2.50;2.00;;;;;8.27;68.65;102168.09;5014514;28;46030;-77
2022/02/07 09:38:42;;;;;;;;;4.50;2.00;;;;;8.29;68.58;102177.59;5035061;28;45566;-78
2022/02/07 09:41:07;;;;;;;;;5.50;3.00;;;;;8.29;68.73;102180.19;5055839;28;47481;-75
2022/02/07 09:43:42;;;;;;;;;2.75;1.25;;;;;8.30;68.37;102184.56;5056342;28;45647;-75
2022/02/07 09:46:12;;;;;;;;;6.50;2.00;;;;;8.33;68.52;102200.09;5056380;28;45764;-74
2022/02/07 09:48:42;;;;;;;;;4.75;2.50;;;;;8.36;68.89;102214.81;5055821;28;45536;-76
2022/02/07 09:51:09;;;;;;;;;2.75;1.75;;;;;8.43;68.38;102219.75;5055102;28;47472;-73
2022/02/07 09:53:35;;;;;;;;;1.50;1.25;;;;;8.51;68.96;102236.91;5055307;28;45499;-73
2022/02/07 09:56:05;;;;;;;;;2.75;2.00;;;;;8.52;68.61;102226.41;5055299;28;45590;-75
2022/02/07 09:58:33;;;;;;;;;2.75;1.00;;;;;8.52;68.38;102228.16;5054892;28;45647;-75
2022/02/07 10:01:01;;;;;;;;;2.25;1.00;;;;;8.58;68.47;102238.38;5055278;28;46324;-75
2022/02/07 10:03:35;;;;;;;;;1.75;1.00;;;;;8.61;68.33;102238.25;5053219;28;45951;-73
2022/02/07 10:06:12;;;;;;;;;2.75;1.50;;;;;8.60;68.72;102232.19;5035247;28;45826;-77
2022/02/07 10:08:58;;;;;;;;;1.00;0.00;;;;;8.69;68.25;102239.66;5054658;28;45791;-77
2022/02/07 10:12:01;;;;;;;;;2.25;1.00;;;;;8.78;68.17;102254.19;5054752;28;46614;-76
2022/02/07 10:14:21;;;;;;;;;1.00;0.75;;;;;8.81;68.48;102254.91;5053980;28;46278;-76
2022/02/07 10:19:54;;;;;;;;;1.00;0.00;;;;;8.98;67.82;102264.72;4992435;28;45668;-75
2022/02/07 10:37:10;;;;;;;;;5.00;1.00;;;;;9.20;66.83;102275.22;4992022;28;46111;-76
2022/02/07 10:39:34;;;;;;;;;1.00;0.75;;;;;9.23;66.76;102277.72;4992238;28;45630;-76
2022/02/07 10:42:32;;;;;;;;;1.50;1.00;;;;;9.15;67.36;102259.72;4992489;28;45646;-76
2022/02/07 10:45:01;;;;;;;;;1.00;0.75;;;;;9.26;67.12;102275.84;4992313;28;46756;-75
2022/02/07 10:47:43;;;;;;;;;5.00;1.50;;;;;9.30;66.95;102276.56;4992095;28;46113;-75
2022/02/07 10:53:30;;;;;;;;;0.75;0.00;;;;;9.26;65.47;102261.91;4992431;28;45609;-75
2022/02/07 10:55:56;;;;;;;;;2.25;1.25;;;;;9.36;65.24;102276.31;5004622;28;47303;-76
2022/02/07 10:58:23;;;;;;;;;2.25;1.25;;;;;9.37;65.19;102264.09;5035954;28;46179;-75
2022/02/07 11:01:02;;;;;;;;;1.00;1.00;;;;;9.39;65.72;102257.06;5054233;28;45902;-77
2022/02/07 11:03:32;;;;;;;;;1.75;1.00;;;;;9.48;64.63;102272.38;5054488;28;45541;-78
2022/02/07 11:06:01;;;;;;;;;0.75;0.75;;;;;9.44;65.05;102255.97;5054328;28;46499;-75
2022/02/07 11:08:44;;;;;;;;;1.75;1.75;;;;;9.51;65.04;102257.41;5054613;28;46991;-76
2022/02/07 11:19:25;;;;;;;;;3.50;0.00;;;;;9.67;64.71;102283.78;5054481;28;45678;-75
2022/02/07 11:25:27;;;;;;;;;3.50;3.00;;;;;9.69;64.19;102264.53;4953131;28;45843;-76
2022/02/07 11:27:58;;;;;;;;;1.00;1.00;;;;;9.73;63.75;102260.00;4952775;28;46424;-76
2022/02/07 11:30:39;;;;;;;;;7.00;1.75;;;;;9.77;63.33;102268.59;4952409;28;46336;-76
2022/02/07 11:33:07;;;;;;;;;0.00;0.00;;;;;9.82;64.06;102270.13;4952870;28;45845;-79
2022/02/07 11:35:48;;;;;;;;;1.00;0.25;;;;;9.84;64.00;102283.13;4952824;28;45641;-78
2022/02/07 11:38:19;;;;;;;;;3.00;1.00;;;;;9.81;62.81;102273.63;4952461;28;46504;-79
2022/02/07 11:40:56;;;;;;;;;1.50;1.50;;;;;9.89;62.66;102279.38;4952524;28;46846;-81
2022/02/07 11:43:29;;;;;;;;;1.00;1.00;;;;;9.89;63.72;102291.63;4954414;28;45713;-80
2022/02/07 11:46:03;;;;;;;;;2.75;1.00;;;;;9.93;62.63;102299.28;4940602;28;45700;-75
2022/02/07 11:51:50;;;;;;;;;1.00;1.00;;;;;9.98;63.73;102296.50;4955060;28;45705;-75
2022/02/07 11:54:24;;;;;;;;;1.25;1.00;;;;;10.02;62.60;102295.47;4955648;28;45605;-77
2022/02/07 11:56:56;;;;;;;;;2.00;1.00;;;;;10.03;63.22;102297.16;4955584;28;45609;-77
2022/02/07 12:02:18;;;;;;;;;1.25;0.75;;;;;10.08;62.06;102298.69;5056276;28;46159;-75
2022/02/07 12:08:07;;;;;;;;;3.00;1.50;;;;;10.14;62.62;102304.56;5055940;28;45558;-73
2022/02/07 12:13:05;;;;;;;;;0.00;0.00;;;;;10.19;62.71;102293.00;5056067;28;46091;-75
2022/02/07 12:15:36;;;;;;;;;2.00;1.00;;;;;10.15;61.81;102280.91;5038227;28;45650;-76
2022/02/07 12:18:14;;;;;;;;;1.00;1.00;;;;;10.21;61.70;102287.69;5056448;28;45646;-77
2022/02/07 12:24:03;;;;;;;;;0.00;0.00;;;;;10.26;62.69;102286.56;5055852;28;46082;-78
2022/02/07 12:26:36;;;;;;;;;2.75;0.75;;;;;10.27;61.84;102284.81;5055708;28;45502;-75
2022/02/07 12:29:08;;;;;;;;;0.75;0.00;;;;;10.26;61.37;102283.97;5054769;28;45641;-76
2022/02/07 12:31:35;;;;;;;;;2.00;1.00;;;;;10.18;61.09;102264.25;5055372;28;47406;-76
2022/02/07 12:34:12;;;;;;;;;2.50;1.00;;;;;10.32;60.98;102283.69;5056107;28;45568;-76
2022/02/07 12:36:39;;;;;;;;;1.75;1.50;;;;;10.33;62.11;102279.31;5055782;28;45746;-75
2022/02/07 12:39:13;;;;;;;;;1.25;1.00;;;;;10.35;61.44;102290.59;5055310;28;45931;-75
2022/02/07 12:41:39;;;;;;;;;4.00;1.25;;;;;10.36;61.81;102284.44;5055819;28;47405;-77
2022/02/07 12:44:07;;;;;;;;;1.50;1.00;;;;;10.37;61.87;102279.13;5055789;28;47220;-76
2022/02/07 12:46:34;;;;;;;;;3.50;2.00;;;;;10.35;61.57;102272.25;5055471;28;45698;-77
2022/02/07 12:49:01;;;;;;;;;3.00;1.00;;;;;10.46;62.86;102283.97;5056348;28;45582;-77
2022/02/07 12:51:30;;;;;;;;;2.50;1.00;;;;;10.48;61.53;102289.13;5055440;28;46518;-77
2022/02/07 12:53:56;;;;;;;;;1.00;0.00;;;;;10.51;62.04;102300.34;5054246;28;47353;-77
2022/02/07 12:56:22;;;;;;;;;1.00;0.50;;;;;10.48;61.29;102284.75;5055939;28;45515;-79
2022/02/07 12:58:50;;;;;;;;;2.25;1.00;;;;;10.51;61.47;102300.34;5037976;28;45568;-77
2022/02/07 13:01:18;;;;;;;;;3.00;2.00;;;;;10.52;60.26;102282.84;5055675;28;46471;-77
2022/02/07 13:07:08;;;;;;;;;2.00;1.50;;;;;10.51;60.45;102274.13;5055361;28;45776;-76
2022/02/07 13:09:42;;;;;;;;;2.25;1.00;;;;;10.57;60.66;102280.88;5037680;28;45590;-77
2022/02/07 13:14:48;;;;;;;;;2.00;1.00;;;;;10.63;60.19;102287.63;5055515;28;46200;-78
2022/02/07 13:17:15;;;;;;;;;0.00;0.00;;;;;10.67;61.21;102295.28;5055477;28;45577;-80
2022/02/07 13:23:19;;;;;;;;;3.00;1.75;;;;;10.71;60.88;102286.34;5055301;28;45578;-75
2022/02/07 13:25:54;;;;;;;;;1.00;1.00;;;;;10.76;61.01;102291.38;5055050;28;46370;-76
2022/02/07 13:28:26;;;;;;;;;0.00;0.00;;;;;10.79;59.88;102291.25;5055611;28;45476;-75
2022/02/07 13:30:54;;;;;;;;;1.75;0.25;;;;;10.79;60.17;102294.75;5055015;28;45734;-78
2022/02/07 13:33:21;;;;;;;;;1.75;1.25;;;;;10.81;60.41;102302.50;5036804;28;46635;-78
2022/02/07 13:39:08;;;;;;;;;3.00;2.00;;;;;10.86;59.50;102305.78;5055189;28;45718;-77
2022/02/07 13:41:34;;;;;;;;;1.00;1.00;;;;;10.90;58.54;102296.88;5055046;28;45921;-77
2022/02/07 13:44:01;;;;;;;;;3.50;2.00;;;;;10.92;59.28;102302.88;5053664;28;48331;-77
2022/02/07 13:46:31;;;;;;;;;1.00;1.00;;;;;11.01;59.47;102304.25;5055330;28;46252;-78
2022/02/07 13:48:58;;;;;;;;;1.00;0.00;;;;;11.03;60.23;102312.88;5055876;28;45692;-77
2022/02/07 13:51:27;;;;;;;;;1.50;1.00;;;;;11.02;60.80;102298.91;5055434;28;45527;-77
2022/02/07 13:53:53;;;;;;;;;6.00;2.00;;;;;11.07;59.50;102304.78;5055238;28;47371;-76
2022/02/07 13:56:33;;;;;;;;;1.75;1.00;;;;;11.11;60.31;102311.63;5055009;28;46187;-77
2022/02/07 13:59:15;;;;;;;;;1.00;1.00;;;;;11.14;60.30;102300.13;5055147;28;45656;-78
2022/02/07 14:01:43;;;;;;;;;2.50;1.00;;;;;11.15;59.43;102299.22;5036468;28;46054;-77
2022/02/07 14:04:20;;;;;;;;;1.00;0.00;;;;;11.21;59.35;102319.91;5054297;28;46439;-78
2022/02/07 14:07:04;;;;;;;;;2.00;1.00;;;;;11.24;59.65;102290.91;5053816;28;46334;-75
2022/02/07 14:09:29;;;;;;;;;1.75;1.00;;;;;11.29;61.42;102304.66;5054603;28;45555;-75
2022/02/07 14:11:58;;;;;;;;;1.00;0.25;;;;;11.31;60.55;102306.31;5054264;28;45889;-78
2022/02/07 14:14:27;;;;;;;;;2.00;1.00;;;;;11.29;61.45;102275.78;5054607;28;45555;-77
2022/02/07 14:16:52;;;;;;;;;2.00;1.00;;;;;11.35;59.31;102304.38;5054601;28;45978;-77
2022/02/07 14:19:39;;;;;;;;;1.25;1.00;;;;;11.31;58.91;102292.31;5054576;28;45713;-78
2022/02/07 14:22:06;;;;;;;;;1.00;1.00;;;;;11.40;60.15;102301.53;5054280;28;45839;-76
2022/02/07 14:24:32;;;;;;;;;1.00;1.00;;;;;11.38;59.09;102304.25;5054206;28;46748;-77
2022/02/07 14:26:57;;;;;;;;;0.25;0.00;;;;;11.38;59.07;102306.88;5054559;28;46401;-76
2022/02/07 14:29:23;;;;;;;;;2.00;1.00;;;;;11.33;56.68;102299.22;5052886;28;45674;-77
2022/02/07 14:31:48;;;;;;;;;1.00;1.00;;;;;11.38;57.99;102311.25;5054280;28;45732;-77
2022/02/07 14:34:14;;;;;;;;;3.00;1.50;;;;;11.40;57.74;102319.91;5036253;28;48603;-76
2022/02/07 14:36:39;;;;;;;;;1.25;0.75;;;;;11.39;58.14;102302.47;5053786;28;46272;-77
2022/02/07 14:39:06;;;;;;;;;1.00;0.75;;;;;11.40;57.90;102315.50;5054216;28;45638;-76
2022/02/07 14:41:32;;;;;;;;;0.75;0.75;;;;;11.38;57.84;102314.75;5054455;28;45982;-76
2022/02/07 14:44:01;;;;;;;;;4.00;1.00;;;;;11.38;58.07;102325.25;5054284;28;46406;-76
2022/02/07 14:46:34;;;;;;;;;2.50;1.25;;;;;11.37;56.82;102313.03;5054526;28;46010;-77
2022/02/07 14:49:00;;;;;;;;;2.00;1.00;;;;;11.35;57.19;102312.25;5056652;28;45507;-77
2022/02/07 14:51:26;;;;;;;;;1.00;1.00;;;;;11.34;56.33;102303.53;5055691;28;45428;-78
2022/02/07 14:53:52;;;;;;;;;2.50;1.00;;;;;11.38;56.82;102300.75;5054164;28;45845;-77
2022/02/07 14:56:18;;;;;;;;;4.00;2.00;;;;;11.34;56.92;102300.03;5052702;28;46167;-77
2022/02/07 14:58:45;;;;;;;;;2.00;1.25;;;;;11.36;57.37;102300.84;5053690;28;45491;-77
2022/02/07 15:01:12;;;;;;;;;2.25;2.00;;;;;11.38;57.08;102311.25;5053904;28;45659;-78
2022/02/07 15:03:40;;;;;;;;;2.00;2.00;;;;;11.39;56.20;102305.09;5053934;28;45657;-77
2022/02/07 15:09:41;;;;;;;;;3.00;2.00;;;;;11.40;56.66;102301.53;5052486;28;45807;-77
2022/02/07 15:12:06;;;;;;;;;1.25;0.25;;;;;11.39;57.14;102300.66;5053698;28;45596;-75
2022/02/07 15:14:32;;;;;;;;;1.75;1.75;;;;;11.39;56.21;102300.66;5053851;28;46521;-77
2022/02/07 15:17:02;;;;;;;;;4.00;3.00;;;;;11.43;56.10;102306.66;5053423;28;46252;-76
2022/02/07 15:19:28;;;;;;;;;3.00;2.00;;;;;11.45;56.90;102313.50;5057286;28;45652;-77